Etusivu
METAR-TAF:

METAR-TAF

Lentoasemat :

Trapani, Italia

Leveyspiiri: 37-55N, Pituuspiiri: 012-30E, korkeus merenpinnasta: 7 m

Tämänhetkinen sää

Tämä raportti tehtiin 24 minuuttia sitten, kello 04.55 UTC
Tuuli 1 kn eri suunnista
Lämpötila 22°C
Kosteus 94%
Ilmanpaine 1015 hPa
Näkyvyys 10 km tai enemmän
Muutamia pilviä 700 ft:n korkeudessa

METAR: LICT 190455Z VRB01KT 9999 FEW007 22/21 Q1015 RMK FEW VIS MIN 9999 WIND THR13 03006KT BLU

Aika: 07:19 (05:19 UTC)

Sääennuste

Tämä raportti tehtiin 3 tuntia ja 19 minuuttia sitten, kello 02.00 UTC
Ennuste voimassa 19. päivästä klo 03 UTC - 19. päivään klo 12 UTC
Tuuli 5 kn koillisesta
Näkyvyys 10 km tai enemmän
ei pilviä alle 1500 m:ssä eikä cumulonimbus-pilviä
Tulossa
19. päivästä klo 08 UTC - 19. päivään klo 10 UTC
Tuuli 15 kn pohjoisesta

TAF: LICT 190200Z 1903/1912 04005KT CAVOK BECMG 1908/1910 35015KT

Säähavainnot ja -ennusteet yli 4000 lentoasemalta (METAR- ja TAF-raportit).

Käytössä olevat sääasemat on merkitty karttaan keltaisilla ja punaisilla pisteillä.

Aseta hiiri pisteen päälle nähdäksesi sääaseman nimen.

Klikkaa sitten nähdäksesi säähavainnot ja -ennusteet.

Kartan vaihtaminen: klikkaa mustalla rastilla varustettuja vihreitä pisteitä, niin voit zoomata sisään; viivalla varustettua vihreää pistettä, niin voit zoomata ulos tai vihreitä nuolia, niin pääset viereisille kartoille.


METAR-TAF: